sensor_id;sensor_type;location;lat;lon;timestamp;P1;durP1;ratioP1;P2;durP2;ratioP2
36445;SDS011;22472;50.848;-1.216;2024-02-16T00:02:06;20.77;;;9.38;;
36445;SDS011;22472;50.848;-1.216;2024-02-16T00:04:33;18.00;;;9.20;;
36445;SDS011;22472;50.848;-1.216;2024-02-16T00:07:00;19.65;;;10.00;;
36445;SDS011;22472;50.848;-1.216;2024-02-16T00:09:28;17.58;;;9.07;;
36445;SDS011;22472;50.848;-1.216;2024-02-16T00:11:55;16.90;;;8.65;;
36445;SDS011;22472;50.848;-1.216;2024-02-16T00:14:22;16.85;;;8.68;;
36445;SDS011;22472;50.848;-1.216;2024-02-16T00:16:49;19.33;;;8.30;;
36445;SDS011;22472;50.848;-1.216;2024-02-16T00:19:18;15.57;;;8.30;;
36445;SDS011;22472;50.848;-1.216;2024-02-16T00:21:45;14.38;;;8.35;;
36445;SDS011;22472;50.848;-1.216;2024-02-16T00:24:12;18.70;;;8.75;;
36445;SDS011;22472;50.848;-1.216;2024-02-16T00:26:41;17.20;;;8.93;;
36445;SDS011;22472;50.848;-1.216;2024-02-16T00:29:10;18.17;;;9.05;;
36445;SDS011;22472;50.848;-1.216;2024-02-16T00:31:37;17.92;;;8.90;;
36445;SDS011;22472;50.848;-1.216;2024-02-16T00:34:05;16.90;;;9.23;;
36445;SDS011;22472;50.848;-1.216;2024-02-16T00:36:33;20.38;;;9.10;;
36445;SDS011;22472;50.848;-1.216;2024-02-16T00:39:00;20.98;;;8.63;;
36445;SDS011;22472;50.848;-1.216;2024-02-16T00:41:28;21.13;;;9.13;;
36445;SDS011;22472;50.848;-1.216;2024-02-16T00:43:56;17.00;;;8.32;;
36445;SDS011;22472;50.848;-1.216;2024-02-16T00:46:23;11.32;;;6.85;;
36445;SDS011;22472;50.848;-1.216;2024-02-16T00:48:51;16.50;;;8.68;;
36445;SDS011;22472;50.848;-1.216;2024-02-16T00:51:19;17.95;;;7.88;;
36445;SDS011;22472;50.848;-1.216;2024-02-16T00:53:47;13.40;;;7.65;;
36445;SDS011;22472;50.848;-1.216;2024-02-16T00:56:14;16.80;;;7.60;;
36445;SDS011;22472;50.848;-1.216;2024-02-16T00:58:42;15.40;;;8.07;;
36445;SDS011;22472;50.848;-1.216;2024-02-16T01:01:09;13.85;;;7.18;;
36445;SDS011;22472;50.848;-1.216;2024-02-16T01:03:37;14.90;;;7.93;;
36445;SDS011;22472;50.848;-1.216;2024-02-16T01:06:05;14.80;;;7.63;;
36445;SDS011;22472;50.848;-1.216;2024-02-16T01:08:34;16.95;;;8.52;;
36445;SDS011;22472;50.848;-1.216;2024-02-16T01:11:02;18.98;;;8.90;;
36445;SDS011;22472;50.848;-1.216;2024-02-16T01:13:30;20.45;;;9.45;;
36445;SDS011;22472;50.848;-1.216;2024-02-16T01:15:58;16.50;;;9.93;;
36445;SDS011;22472;50.848;-1.216;2024-02-16T01:18:25;21.48;;;10.93;;
36445;SDS011;22472;50.848;-1.216;2024-02-16T01:20:52;18.42;;;10.02;;
36445;SDS011;22472;50.848;-1.216;2024-02-16T01:23:18;19.65;;;10.77;;
36445;SDS011;22472;50.848;-1.216;2024-02-16T01:25:45;17.38;;;10.55;;
36445;SDS011;22472;50.848;-1.216;2024-02-16T01:28:14;14.55;;;9.80;;
36445;SDS011;22472;50.848;-1.216;2024-02-16T01:30:42;16.67;;;8.98;;
36445;SDS011;22472;50.848;-1.216;2024-02-16T01:33:09;13.20;;;9.48;;
36445;SDS011;22472;50.848;-1.216;2024-02-16T01:35:36;14.25;;;8.93;;
36445;SDS011;22472;50.848;-1.216;2024-02-16T01:38:04;12.93;;;8.57;;
36445;SDS011;22472;50.848;-1.216;2024-02-16T01:40:31;12.00;;;8.50;;
36445;SDS011;22472;50.848;-1.216;2024-02-16T01:42:58;15.93;;;8.70;;
36445;SDS011;22472;50.848;-1.216;2024-02-16T01:45:27;10.13;;;7.68;;
36445;SDS011;22472;50.848;-1.216;2024-02-16T01:47:54;10.93;;;7.65;;
36445;SDS011;22472;50.848;-1.216;2024-02-16T01:50:21;10.93;;;7.30;;
36445;SDS011;22472;50.848;-1.216;2024-02-16T01:52:49;10.40;;;6.85;;
36445;SDS011;22472;50.848;-1.216;2024-02-16T01:55:16;9.48;;;6.53;;
36445;SDS011;22472;50.848;-1.216;2024-02-16T01:57:44;9.88;;;6.82;;
36445;SDS011;22472;50.848;-1.216;2024-02-16T02:00:12;8.63;;;6.47;;
36445;SDS011;22472;50.848;-1.216;2024-02-16T02:02:41;8.45;;;5.97;;
36445;SDS011;22472;50.848;-1.216;2024-02-16T02:05:10;6.70;;;5.35;;
36445;SDS011;22472;50.848;-1.216;2024-02-16T02:07:38;8.10;;;5.75;;
36445;SDS011;22472;50.848;-1.216;2024-02-16T02:10:06;6.95;;;4.97;;
36445;SDS011;22472;50.848;-1.216;2024-02-16T02:12:33;6.53;;;4.55;;
36445;SDS011;22472;50.848;-1.216;2024-02-16T02:15:00;7.05;;;3.90;;
36445;SDS011;22472;50.848;-1.216;2024-02-16T02:17:28;5.68;;;3.53;;
36445;SDS011;22472;50.848;-1.216;2024-02-16T02:19:56;6.68;;;2.92;;
36445;SDS011;22472;50.848;-1.216;2024-02-16T02:22:25;3.17;;;1.83;;
36445;SDS011;22472;50.848;-1.216;2024-02-16T02:24:52;2.20;;;1.60;;
36445;SDS011;22472;50.848;-1.216;2024-02-16T02:27:20;3.97;;;1.50;;
36445;SDS011;22472;50.848;-1.216;2024-02-16T02:29:48;2.75;;;1.38;;
36445;SDS011;22472;50.848;-1.216;2024-02-16T02:32:15;3.22;;;1.30;;
36445;SDS011;22472;50.848;-1.216;2024-02-16T02:34:42;1.55;;;1.10;;
36445;SDS011;22472;50.848;-1.216;2024-02-16T02:37:09;1.88;;;1.00;;
36445;SDS011;22472;50.848;-1.216;2024-02-16T02:39:39;2.17;;;1.20;;
36445;SDS011;22472;50.848;-1.216;2024-02-16T02:42:06;1.95;;;1.02;;
36445;SDS011;22472;50.848;-1.216;2024-02-16T02:44:34;2.90;;;1.00;;
36445;SDS011;22472;50.848;-1.216;2024-02-16T02:47:02;1.67;;;1.02;;
36445;SDS011;22472;50.848;-1.216;2024-02-16T02:49:29;1.90;;;1.20;;
36445;SDS011;22472;50.848;-1.216;2024-02-16T02:51:58;3.70;;;1.40;;
36445;SDS011;22472;50.848;-1.216;2024-02-16T02:54:25;2.50;;;1.10;;
36445;SDS011;22472;50.848;-1.216;2024-02-16T02:56:54;2.35;;;1.10;;
36445;SDS011;22472;50.848;-1.216;2024-02-16T02:59:21;2.25;;;0.70;;
36445;SDS011;22472;50.848;-1.216;2024-02-16T03:04:24;3.35;;;0.90;;
36445;SDS011;22472;50.848;-1.216;2024-02-16T03:06:51;2.65;;;0.80;;
36445;SDS011;22472;50.848;-1.216;2024-02-16T03:09:18;1.92;;;1.00;;
36445;SDS011;22472;50.848;-1.216;2024-02-16T03:11:46;2.17;;;0.80;;
36445;SDS011;22472;50.848;-1.216;2024-02-16T03:14:13;3.65;;;0.80;;
36445;SDS011;22472;50.848;-1.216;2024-02-16T03:16:40;2.20;;;0.95;;
36445;SDS011;22472;50.848;-1.216;2024-02-16T03:19:08;3.83;;;1.00;;
36445;SDS011;22472;50.848;-1.216;2024-02-16T03:21:35;1.88;;;1.00;;
36445;SDS011;22472;50.848;-1.216;2024-02-16T03:24:03;5.45;;;1.88;;
36445;SDS011;22472;50.848;-1.216;2024-02-16T03:26:30;5.95;;;2.38;;
36445;SDS011;22472;50.848;-1.216;2024-02-16T03:28:57;5.57;;;3.10;;
36445;SDS011;22472;50.848;-1.216;2024-02-16T03:31:26;6.20;;;3.80;;
36445;SDS011;22472;50.848;-1.216;2024-02-16T03:34:12;8.07;;;4.90;;
36445;SDS011;22472;50.848;-1.216;2024-02-16T03:36:40;7.15;;;4.15;;
36445;SDS011;22472;50.848;-1.216;2024-02-16T03:39:07;5.90;;;3.47;;
36445;SDS011;22472;50.848;-1.216;2024-02-16T03:41:35;7.70;;;3.40;;
36445;SDS011;22472;50.848;-1.216;2024-02-16T03:44:02;8.13;;;3.38;;
36445;SDS011;22472;50.848;-1.216;2024-02-16T03:46:31;6.25;;;3.08;;
36445;SDS011;22472;50.848;-1.216;2024-02-16T03:48:58;5.40;;;2.50;;
36445;SDS011;22472;50.848;-1.216;2024-02-16T03:51:25;4.13;;;2.17;;
36445;SDS011;22472;50.848;-1.216;2024-02-16T03:53:54;7.13;;;1.90;;
36445;SDS011;22472;50.848;-1.216;2024-02-16T03:56:21;5.40;;;1.98;;
36445;SDS011;22472;50.848;-1.216;2024-02-16T03:58:48;4.95;;;1.60;;
36445;SDS011;22472;50.848;-1.216;2024-02-16T04:01:16;4.93;;;1.60;;
36445;SDS011;22472;50.848;-1.216;2024-02-16T04:03:44;3.40;;;1.70;;
36445;SDS011;22472;50.848;-1.216;2024-02-16T04:06:12;4.60;;;1.63;;
36445;SDS011;22472;50.848;-1.216;2024-02-16T04:08:39;4.70;;;1.45;;
36445;SDS011;22472;50.848;-1.216;2024-02-16T04:11:06;3.97;;;1.60;;
36445;SDS011;22472;50.848;-1.216;2024-02-16T04:13:33;2.90;;;1.38;;
36445;SDS011;22472;50.848;-1.216;2024-02-16T04:16:01;3.63;;;1.40;;
36445;SDS011;22472;50.848;-1.216;2024-02-16T04:18:28;3.65;;;1.20;;
36445;SDS011;22472;50.848;-1.216;2024-02-16T04:20:56;4.03;;;1.45;;
36445;SDS011;22472;50.848;-1.216;2024-02-16T04:23:24;4.80;;;1.30;;
36445;SDS011;22472;50.848;-1.216;2024-02-16T04:25:51;3.85;;;1.00;;
36445;SDS011;22472;50.848;-1.216;2024-02-16T04:28:18;3.47;;;1.30;;
36445;SDS011;22472;50.848;-1.216;2024-02-16T04:30:45;2.88;;;0.95;;
36445;SDS011;22472;50.848;-1.216;2024-02-16T04:33:13;2.38;;;1.20;;
36445;SDS011;22472;50.848;-1.216;2024-02-16T04:35:40;4.72;;;1.02;;
36445;SDS011;22472;50.848;-1.216;2024-02-16T04:38:09;4.32;;;1.25;;
36445;SDS011;22472;50.848;-1.216;2024-02-16T04:40:36;2.47;;;1.02;;
36445;SDS011;22472;50.848;-1.216;2024-02-16T04:43:04;3.00;;;1.17;;
36445;SDS011;22472;50.848;-1.216;2024-02-16T04:45:31;3.95;;;1.10;;
36445;SDS011;22472;50.848;-1.216;2024-02-16T04:48:02;4.10;;;1.00;;
36445;SDS011;22472;50.848;-1.216;2024-02-16T04:50:30;3.45;;;1.10;;
36445;SDS011;22472;50.848;-1.216;2024-02-16T04:52:57;5.53;;;0.90;;
36445;SDS011;22472;50.848;-1.216;2024-02-16T04:55:25;5.82;;;1.15;;
36445;SDS011;22472;50.848;-1.216;2024-02-16T04:57:53;4.82;;;1.05;;
36445;SDS011;22472;50.848;-1.216;2024-02-16T05:00:19;8.25;;;1.10;;
36445;SDS011;22472;50.848;-1.216;2024-02-16T05:02:46;5.15;;;1.10;;
36445;SDS011;22472;50.848;-1.216;2024-02-16T05:05:14;3.42;;;0.90;;
36445;SDS011;22472;50.848;-1.216;2024-02-16T05:07:42;5.30;;;0.90;;
36445;SDS011;22472;50.848;-1.216;2024-02-16T05:10:09;5.07;;;1.10;;
36445;SDS011;22472;50.848;-1.216;2024-02-16T05:12:38;5.07;;;1.02;;
36445;SDS011;22472;50.848;-1.216;2024-02-16T05:15:06;4.47;;;1.15;;
36445;SDS011;22472;50.848;-1.216;2024-02-16T05:17:34;6.20;;;1.00;;
36445;SDS011;22472;50.848;-1.216;2024-02-16T05:20:02;8.73;;;1.20;;
36445;SDS011;22472;50.848;-1.216;2024-02-16T05:22:29;8.18;;;1.30;;
36445;SDS011;22472;50.848;-1.216;2024-02-16T05:24:56;9.27;;;1.38;;
36445;SDS011;22472;50.848;-1.216;2024-02-16T05:27:24;9.65;;;1.08;;
36445;SDS011;22472;50.848;-1.216;2024-02-16T05:29:53;10.13;;;1.30;;
36445;SDS011;22472;50.848;-1.216;2024-02-16T05:32:20;9.93;;;1.27;;
36445;SDS011;22472;50.848;-1.216;2024-02-16T05:34:47;10.02;;;1.33;;
36445;SDS011;22472;50.848;-1.216;2024-02-16T05:37:14;6.70;;;0.82;;
36445;SDS011;22472;50.848;-1.216;2024-02-16T05:39:42;7.97;;;0.98;;
36445;SDS011;22472;50.848;-1.216;2024-02-16T05:42:19;9.05;;;0.90;;
36445;SDS011;22472;50.848;-1.216;2024-02-16T05:44:47;8.15;;;1.05;;
36445;SDS011;22472;50.848;-1.216;2024-02-16T05:47:16;7.97;;;1.20;;
36445;SDS011;22472;50.848;-1.216;2024-02-16T05:49:45;6.88;;;1.15;;
36445;SDS011;22472;50.848;-1.216;2024-02-16T05:52:12;8.77;;;1.20;;
36445;SDS011;22472;50.848;-1.216;2024-02-16T05:57:10;11.88;;;1.50;;
36445;SDS011;22472;50.848;-1.216;2024-02-16T05:59:37;9.82;;;1.40;;
36445;SDS011;22472;50.848;-1.216;2024-02-16T06:02:05;12.32;;;2.13;;
36445;SDS011;22472;50.848;-1.216;2024-02-16T06:04:35;13.10;;;1.90;;
36445;SDS011;22472;50.848;-1.216;2024-02-16T06:07:05;12.40;;;2.15;;
36445;SDS011;22472;50.848;-1.216;2024-02-16T06:09:33;16.90;;;2.47;;
36445;SDS011;22472;50.848;-1.216;2024-02-16T06:12:01;19.20;;;2.50;;
36445;SDS011;22472;50.848;-1.216;2024-02-16T06:14:29;16.65;;;2.80;;
36445;SDS011;22472;50.848;-1.216;2024-02-16T06:16:57;18.50;;;2.80;;
36445;SDS011;22472;50.848;-1.216;2024-02-16T06:19:24;14.85;;;2.78;;
36445;SDS011;22472;50.848;-1.216;2024-02-16T06:21:53;22.13;;;3.30;;
36445;SDS011;22472;50.848;-1.216;2024-02-16T06:24:21;16.38;;;2.65;;
36445;SDS011;22472;50.848;-1.216;2024-02-16T06:26:48;19.27;;;3.00;;
36445;SDS011;22472;50.848;-1.216;2024-02-16T06:29:16;19.08;;;3.20;;
36445;SDS011;22472;50.848;-1.216;2024-02-16T06:31:44;18.40;;;3.75;;
36445;SDS011;22472;50.848;-1.216;2024-02-16T06:34:12;21.13;;;3.47;;
36445;SDS011;22472;50.848;-1.216;2024-02-16T06:36:40;18.95;;;3.60;;
36445;SDS011;22472;50.848;-1.216;2024-02-16T06:39:08;20.35;;;3.92;;
36445;SDS011;22472;50.848;-1.216;2024-02-16T06:41:36;19.00;;;3.75;;
36445;SDS011;22472;50.848;-1.216;2024-02-16T06:44:04;22.52;;;4.32;;
36445;SDS011;22472;50.848;-1.216;2024-02-16T06:46:31;20.67;;;4.43;;
36445;SDS011;22472;50.848;-1.216;2024-02-16T06:48:58;20.95;;;4.15;;
36445;SDS011;22472;50.848;-1.216;2024-02-16T06:51:26;22.63;;;4.63;;
36445;SDS011;22472;50.848;-1.216;2024-02-16T06:53:53;26.33;;;4.88;;
36445;SDS011;22472;50.848;-1.216;2024-02-16T06:56:22;22.88;;;4.82;;
36445;SDS011;22472;50.848;-1.216;2024-02-16T06:58:50;27.00;;;5.00;;
36445;SDS011;22472;50.848;-1.216;2024-02-16T07:01:17;19.63;;;4.63;;
36445;SDS011;22472;50.848;-1.216;2024-02-16T07:03:44;23.45;;;4.90;;
36445;SDS011;22472;50.848;-1.216;2024-02-16T07:06:12;19.92;;;4.85;;
36445;SDS011;22472;50.848;-1.216;2024-02-16T07:08:39;20.58;;;4.40;;
36445;SDS011;22472;50.848;-1.216;2024-02-16T07:11:07;21.38;;;4.13;;
36445;SDS011;22472;50.848;-1.216;2024-02-16T07:13:38;23.00;;;4.55;;
36445;SDS011;22472;50.848;-1.216;2024-02-16T07:16:06;19.58;;;4.13;;
36445;SDS011;22472;50.848;-1.216;2024-02-16T07:18:33;19.55;;;4.28;;
36445;SDS011;22472;50.848;-1.216;2024-02-16T07:21:01;21.08;;;4.38;;
36445;SDS011;22472;50.848;-1.216;2024-02-16T07:23:28;14.35;;;3.95;;
36445;SDS011;22472;50.848;-1.216;2024-02-16T07:25:55;16.33;;;3.72;;
36445;SDS011;22472;50.848;-1.216;2024-02-16T07:28:23;18.58;;;3.92;;
36445;SDS011;22472;50.848;-1.216;2024-02-16T07:30:52;18.77;;;3.67;;
36445;SDS011;22472;50.848;-1.216;2024-02-16T07:33:20;17.92;;;3.97;;
36445;SDS011;22472;50.848;-1.216;2024-02-16T07:35:49;18.33;;;3.50;;
36445;SDS011;22472;50.848;-1.216;2024-02-16T07:38:17;17.77;;;3.45;;
36445;SDS011;22472;50.848;-1.216;2024-02-16T07:40:46;20.83;;;3.15;;
36445;SDS011;22472;50.848;-1.216;2024-02-16T07:43:15;13.63;;;2.78;;
36445;SDS011;22472;50.848;-1.216;2024-02-16T07:45:43;13.90;;;3.40;;
36445;SDS011;22472;50.848;-1.216;2024-02-16T07:48:12;16.23;;;3.58;;
36445;SDS011;22472;50.848;-1.216;2024-02-16T07:50:39;14.70;;;2.83;;
36445;SDS011;22472;50.848;-1.216;2024-02-16T07:53:06;18.73;;;3.38;;
36445;SDS011;22472;50.848;-1.216;2024-02-16T07:55:35;15.00;;;3.08;;
36445;SDS011;22472;50.848;-1.216;2024-02-16T07:58:02;14.27;;;2.90;;
36445;SDS011;22472;50.848;-1.216;2024-02-16T08:00:29;19.63;;;3.20;;
36445;SDS011;22472;50.848;-1.216;2024-02-16T08:02:56;19.10;;;3.53;;
36445;SDS011;22472;50.848;-1.216;2024-02-16T08:05:25;17.40;;;3.83;;
36445;SDS011;22472;50.848;-1.216;2024-02-16T08:07:53;14.95;;;3.50;;
36445;SDS011;22472;50.848;-1.216;2024-02-16T08:10:21;14.05;;;2.92;;
36445;SDS011;22472;50.848;-1.216;2024-02-16T08:12:48;16.10;;;3.13;;
36445;SDS011;22472;50.848;-1.216;2024-02-16T08:15:15;13.82;;;3.22;;
36445;SDS011;22472;50.848;-1.216;2024-02-16T08:17:48;11.35;;;2.70;;
36445;SDS011;22472;50.848;-1.216;2024-02-16T08:20:16;16.95;;;2.58;;
36445;SDS011;22472;50.848;-1.216;2024-02-16T08:22:44;14.15;;;2.55;;
36445;SDS011;22472;50.848;-1.216;2024-02-16T08:25:12;15.90;;;2.25;;
36445;SDS011;22472;50.848;-1.216;2024-02-16T08:27:39;17.13;;;2.20;;
36445;SDS011;22472;50.848;-1.216;2024-02-16T08:30:07;17.08;;;2.33;;
36445;SDS011;22472;50.848;-1.216;2024-02-16T08:32:35;13.85;;;2.05;;
36445;SDS011;22472;50.848;-1.216;2024-02-16T08:35:02;12.05;;;1.83;;
36445;SDS011;22472;50.848;-1.216;2024-02-16T08:37:30;11.80;;;1.60;;
36445;SDS011;22472;50.848;-1.216;2024-02-16T08:39:58;12.15;;;1.77;;
36445;SDS011;22472;50.848;-1.216;2024-02-16T08:42:26;17.58;;;1.85;;
36445;SDS011;22472;50.848;-1.216;2024-02-16T08:44:53;12.90;;;1.88;;
36445;SDS011;22472;50.848;-1.216;2024-02-16T08:47:21;11.65;;;1.27;;
36445;SDS011;22472;50.848;-1.216;2024-02-16T08:49:48;15.40;;;1.90;;
36445;SDS011;22472;50.848;-1.216;2024-02-16T08:52:15;11.02;;;1.17;;
36445;SDS011;22472;50.848;-1.216;2024-02-16T08:54:43;11.70;;;1.20;;
36445;SDS011;22472;50.848;-1.216;2024-02-16T08:57:11;12.18;;;1.13;;
36445;SDS011;22472;50.848;-1.216;2024-02-16T08:59:39;9.80;;;1.05;;
36445;SDS011;22472;50.848;-1.216;2024-02-16T09:02:06;15.40;;;1.48;;
36445;SDS011;22472;50.848;-1.216;2024-02-16T09:04:33;11.82;;;1.10;;
36445;SDS011;22472;50.848;-1.216;2024-02-16T09:07:01;11.13;;;0.93;;
36445;SDS011;22472;50.848;-1.216;2024-02-16T09:09:29;8.93;;;1.10;;
36445;SDS011;22472;50.848;-1.216;2024-02-16T09:11:56;10.93;;;1.20;;
36445;SDS011;22472;50.848;-1.216;2024-02-16T09:14:25;7.70;;;0.77;;
36445;SDS011;22472;50.848;-1.216;2024-02-16T09:16:52;6.97;;;0.70;;
36445;SDS011;22472;50.848;-1.216;2024-02-16T09:19:19;12.35;;;1.23;;
36445;SDS011;22472;50.848;-1.216;2024-02-16T09:21:48;6.30;;;0.70;;
36445;SDS011;22472;50.848;-1.216;2024-02-16T09:24:16;9.25;;;1.00;;
36445;SDS011;22472;50.848;-1.216;2024-02-16T09:26:44;7.95;;;1.00;;
36445;SDS011;22472;50.848;-1.216;2024-02-16T09:29:12;11.40;;;0.95;;
36445;SDS011;22472;50.848;-1.216;2024-02-16T09:31:41;9.38;;;1.30;;
36445;SDS011;22472;50.848;-1.216;2024-02-16T09:34:08;13.32;;;1.65;;
36445;SDS011;22472;50.848;-1.216;2024-02-16T09:36:35;11.55;;;1.20;;
36445;SDS011;22472;50.848;-1.216;2024-02-16T09:39:03;12.93;;;1.83;;
36445;SDS011;22472;50.848;-1.216;2024-02-16T09:41:32;11.88;;;1.42;;
36445;SDS011;22472;50.848;-1.216;2024-02-16T09:44:02;10.88;;;1.23;;
36445;SDS011;22472;50.848;-1.216;2024-02-16T09:46:29;11.52;;;1.20;;
36445;SDS011;22472;50.848;-1.216;2024-02-16T09:48:59;13.98;;;1.35;;
36445;SDS011;22472;50.848;-1.216;2024-02-16T09:51:28;10.90;;;0.65;;
36445;SDS011;22472;50.848;-1.216;2024-02-16T09:53:55;11.38;;;1.15;;
36445;SDS011;22472;50.848;-1.216;2024-02-16T09:56:22;10.63;;;0.75;;
36445;SDS011;22472;50.848;-1.216;2024-02-16T09:58:50;9.27;;;0.93;;
36445;SDS011;22472;50.848;-1.216;2024-02-16T10:01:18;11.20;;;1.08;;
36445;SDS011;22472;50.848;-1.216;2024-02-16T10:03:46;9.00;;;0.70;;
36445;SDS011;22472;50.848;-1.216;2024-02-16T10:06:16;7.32;;;0.63;;
36445;SDS011;22472;50.848;-1.216;2024-02-16T10:08:49;9.60;;;0.77;;
36445;SDS011;22472;50.848;-1.216;2024-02-16T10:11:17;7.88;;;0.75;;
36445;SDS011;22472;50.848;-1.216;2024-02-16T10:13:55;8.20;;;0.80;;
36445;SDS011;22472;50.848;-1.216;2024-02-16T10:16:22;8.80;;;0.70;;
36445;SDS011;22472;50.848;-1.216;2024-02-16T10:18:50;7.43;;;0.82;;
36445;SDS011;22472;50.848;-1.216;2024-02-16T10:21:25;7.85;;;0.70;;
36445;SDS011;22472;50.848;-1.216;2024-02-16T10:23:59;8.57;;;0.75;;
36445;SDS011;22472;50.848;-1.216;2024-02-16T10:26:28;10.57;;;0.80;;
36445;SDS011;22472;50.848;-1.216;2024-02-16T10:28:55;6.85;;;0.73;;
36445;SDS011;22472;50.848;-1.216;2024-02-16T10:31:23;10.05;;;0.80;;
36445;SDS011;22472;50.848;-1.216;2024-02-16T10:33:56;9.43;;;0.80;;
36445;SDS011;22472;50.848;-1.216;2024-02-16T10:36:25;9.57;;;0.70;;
36445;SDS011;22472;50.848;-1.216;2024-02-16T10:38:53;4.95;;;0.43;;
36445;SDS011;22472;50.848;-1.216;2024-02-16T10:41:22;9.80;;;0.80;;
36445;SDS011;22472;50.848;-1.216;2024-02-16T10:43:49;8.15;;;0.80;;
36445;SDS011;22472;50.848;-1.216;2024-02-16T10:46:17;6.47;;;0.50;;
36445;SDS011;22472;50.848;-1.216;2024-02-16T10:48:45;7.60;;;0.63;;
36445;SDS011;22472;50.848;-1.216;2024-02-16T10:51:12;6.80;;;0.50;;
36445;SDS011;22472;50.848;-1.216;2024-02-16T10:53:41;3.95;;;0.50;;
36445;SDS011;22472;50.848;-1.216;2024-02-16T10:56:09;9.30;;;0.75;;
36445;SDS011;22472;50.848;-1.216;2024-02-16T10:58:36;8.52;;;1.10;;
36445;SDS011;22472;50.848;-1.216;2024-02-16T11:01:07;6.15;;;0.55;;
36445;SDS011;22472;50.848;-1.216;2024-02-16T11:03:37;6.35;;;0.65;;
36445;SDS011;22472;50.848;-1.216;2024-02-16T11:06:11;8.40;;;0.90;;
36445;SDS011;22472;50.848;-1.216;2024-02-16T11:08:42;8.85;;;0.75;;
36445;SDS011;22472;50.848;-1.216;2024-02-16T11:11:09;8.85;;;0.80;;
36445;SDS011;22472;50.848;-1.216;2024-02-16T11:13:38;7.10;;;0.80;;
36445;SDS011;22472;50.848;-1.216;2024-02-16T11:16:06;7.18;;;0.57;;
36445;SDS011;22472;50.848;-1.216;2024-02-16T11:18:37;5.45;;;0.70;;
36445;SDS011;22472;50.848;-1.216;2024-02-16T11:21:04;6.70;;;0.90;;
36445;SDS011;22472;50.848;-1.216;2024-02-16T11:23:33;5.82;;;0.73;;
36445;SDS011;22472;50.848;-1.216;2024-02-16T11:26:03;6.07;;;0.77;;
36445;SDS011;22472;50.848;-1.216;2024-02-16T11:28:31;7.07;;;0.75;;
36445;SDS011;22472;50.848;-1.216;2024-02-16T11:30:59;5.45;;;0.47;;
36445;SDS011;22472;50.848;-1.216;2024-02-16T11:33:26;7.63;;;0.63;;
36445;SDS011;22472;50.848;-1.216;2024-02-16T11:35:55;6.80;;;0.40;;
36445;SDS011;22472;50.848;-1.216;2024-02-16T11:38:23;4.70;;;0.40;;
36445;SDS011;22472;50.848;-1.216;2024-02-16T11:40:56;7.60;;;0.57;;
36445;SDS011;22472;50.848;-1.216;2024-02-16T11:43:25;5.07;;;0.50;;
36445;SDS011;22472;50.848;-1.216;2024-02-16T11:45:52;5.00;;;0.50;;
36445;SDS011;22472;50.848;-1.216;2024-02-16T11:48:20;4.03;;;0.30;;
36445;SDS011;22472;50.848;-1.216;2024-02-16T11:50:48;2.13;;;0.30;;
36445;SDS011;22472;50.848;-1.216;2024-02-16T11:53:25;1.88;;;0.28;;
36445;SDS011;22472;50.848;-1.216;2024-02-16T11:55:53;5.30;;;0.30;;
36445;SDS011;22472;50.848;-1.216;2024-02-16T11:58:20;3.35;;;0.25;;
36445;SDS011;22472;50.848;-1.216;2024-02-16T12:00:47;6.20;;;0.30;;
36445;SDS011;22472;50.848;-1.216;2024-02-16T12:03:19;4.32;;;0.30;;
36445;SDS011;22472;50.848;-1.216;2024-02-16T12:05:50;3.85;;;0.38;;
36445;SDS011;22472;50.848;-1.216;2024-02-16T12:08:18;4.82;;;0.30;;
36445;SDS011;22472;50.848;-1.216;2024-02-16T12:10:48;4.13;;;0.20;;
36445;SDS011;22472;50.848;-1.216;2024-02-16T12:13:15;4.88;;;0.30;;
36445;SDS011;22472;50.848;-1.216;2024-02-16T12:15:43;3.10;;;0.30;;
36445;SDS011;22472;50.848;-1.216;2024-02-16T12:18:18;3.17;;;0.20;;
36445;SDS011;22472;50.848;-1.216;2024-02-16T12:20:56;5.03;;;0.30;;
36445;SDS011;22472;50.848;-1.216;2024-02-16T12:23:23;2.58;;;0.20;;
36445;SDS011;22472;50.848;-1.216;2024-02-16T12:25:51;4.05;;;0.30;;
36445;SDS011;22472;50.848;-1.216;2024-02-16T12:28:19;6.07;;;0.30;;
36445;SDS011;22472;50.848;-1.216;2024-02-16T12:30:47;3.60;;;0.22;;
36445;SDS011;22472;50.848;-1.216;2024-02-16T12:33:14;3.88;;;0.20;;
36445;SDS011;22472;50.848;-1.216;2024-02-16T12:35:41;2.45;;;0.20;;
36445;SDS011;22472;50.848;-1.216;2024-02-16T12:38:09;2.63;;;0.30;;
36445;SDS011;22472;50.848;-1.216;2024-02-16T12:40:36;2.28;;;0.20;;
36445;SDS011;22472;50.848;-1.216;2024-02-16T12:43:05;2.28;;;0.20;;
36445;SDS011;22472;50.848;-1.216;2024-02-16T12:45:34;1.65;;;0.22;;
36445;SDS011;22472;50.848;-1.216;2024-02-16T12:48:01;2.25;;;0.10;;
36445;SDS011;22472;50.848;-1.216;2024-02-16T12:50:29;5.60;;;0.50;;
36445;SDS011;22472;50.848;-1.216;2024-02-16T12:52:56;1.55;;;0.20;;
36445;SDS011;22472;50.848;-1.216;2024-02-16T12:55:24;4.25;;;0.30;;
36445;SDS011;22472;50.848;-1.216;2024-02-16T12:57:51;2.90;;;0.20;;
36445;SDS011;22472;50.848;-1.216;2024-02-16T13:00:20;3.03;;;0.20;;
36445;SDS011;22472;50.848;-1.216;2024-02-16T13:02:47;3.13;;;0.20;;
36445;SDS011;22472;50.848;-1.216;2024-02-16T13:05:15;3.20;;;0.15;;
36445;SDS011;22472;50.848;-1.216;2024-02-16T13:07:42;2.10;;;0.10;;
36445;SDS011;22472;50.848;-1.216;2024-02-16T13:10:09;4.20;;;0.20;;
36445;SDS011;22472;50.848;-1.216;2024-02-16T13:12:37;2.22;;;0.10;;
36445;SDS011;22472;50.848;-1.216;2024-02-16T13:15:04;1.83;;;0.20;;
36445;SDS011;22472;50.848;-1.216;2024-02-16T13:17:33;1.70;;;0.10;;
36445;SDS011;22472;50.848;-1.216;2024-02-16T13:20:00;3.60;;;0.20;;
36445;SDS011;22472;50.848;-1.216;2024-02-16T13:22:32;2.13;;;0.13;;
36445;SDS011;22472;50.848;-1.216;2024-02-16T13:25:01;4.40;;;0.15;;
36445;SDS011;22472;50.848;-1.216;2024-02-16T13:27:28;2.08;;;0.20;;
36445;SDS011;22472;50.848;-1.216;2024-02-16T13:29:55;2.33;;;0.20;;
36445;SDS011;22472;50.848;-1.216;2024-02-16T13:32:23;2.42;;;0.22;;
36445;SDS011;22472;50.848;-1.216;2024-02-16T13:34:52;3.05;;;0.10;;
36445;SDS011;22472;50.848;-1.216;2024-02-16T13:37:19;2.45;;;0.20;;
36445;SDS011;22472;50.848;-1.216;2024-02-16T13:39:46;2.45;;;0.20;;
36445;SDS011;22472;50.848;-1.216;2024-02-16T13:42:14;4.47;;;0.30;;
36445;SDS011;22472;50.848;-1.216;2024-02-16T13:44:42;3.63;;;0.30;;
36445;SDS011;22472;50.848;-1.216;2024-02-16T13:47:09;4.38;;;0.20;;
36445;SDS011;22472;50.848;-1.216;2024-02-16T13:49:36;3.30;;;0.20;;
36445;SDS011;22472;50.848;-1.216;2024-02-16T13:52:05;3.45;;;0.30;;
36445;SDS011;22472;50.848;-1.216;2024-02-16T13:54:33;3.25;;;0.20;;
36445;SDS011;22472;50.848;-1.216;2024-02-16T13:57:01;3.85;;;0.28;;
36445;SDS011;22472;50.848;-1.216;2024-02-16T13:59:28;4.65;;;0.30;;
36445;SDS011;22472;50.848;-1.216;2024-02-16T14:01:56;4.90;;;0.30;;
36445;SDS011;22472;50.848;-1.216;2024-02-16T14:04:24;1.60;;;0.30;;
36445;SDS011;22472;50.848;-1.216;2024-02-16T14:06:52;7.07;;;0.30;;
36445;SDS011;22472;50.848;-1.216;2024-02-16T14:09:20;3.92;;;0.47;;
36445;SDS011;22472;50.848;-1.216;2024-02-16T14:11:49;4.47;;;0.28;;
36445;SDS011;22472;50.848;-1.216;2024-02-16T14:14:19;4.43;;;0.30;;
36445;SDS011;22472;50.848;-1.216;2024-02-16T14:16:46;4.93;;;0.30;;
36445;SDS011;22472;50.848;-1.216;2024-02-16T14:19:14;6.35;;;0.50;;
36445;SDS011;22472;50.848;-1.216;2024-02-16T14:21:42;5.65;;;0.40;;
36445;SDS011;22472;50.848;-1.216;2024-02-16T14:24:12;4.47;;;0.30;;
36445;SDS011;22472;50.848;-1.216;2024-02-16T14:26:41;4.13;;;0.50;;
36445;SDS011;22472;50.848;-1.216;2024-02-16T14:29:08;3.72;;;1.17;;
36445;SDS011;22472;50.848;-1.216;2024-02-16T14:31:36;3.88;;;0.70;;
36445;SDS011;22472;50.848;-1.216;2024-02-16T14:34:03;3.90;;;0.73;;
36445;SDS011;22472;50.848;-1.216;2024-02-16T14:36:30;4.18;;;0.60;;
36445;SDS011;22472;50.848;-1.216;2024-02-16T14:38:58;5.93;;;0.77;;